sensor_id;sensor_type;location;lat;lon;timestamp;P1;durP1;ratioP1;P2;durP2;ratioP2
40022;SDS011;25713;-35.352;149.036;2023-01-01T00:01:27;2.03;;;1.00;;
40022;SDS011;25713;-35.352;149.036;2023-01-01T00:04:01;1.58;;;1.10;;
40022;SDS011;25713;-35.352;149.036;2023-01-01T00:06:31;1.92;;;1.17;;
40022;SDS011;25713;-35.352;149.036;2023-01-01T00:09:01;1.75;;;1.10;;
40022;SDS011;25713;-35.352;149.036;2023-01-01T00:11:30;2.63;;;1.20;;
40022;SDS011;25713;-35.352;149.036;2023-01-01T00:14:00;1.35;;;1.15;;
40022;SDS011;25713;-35.352;149.036;2023-01-01T00:16:30;2.72;;;1.20;;
40022;SDS011;25713;-35.352;149.036;2023-01-01T00:19:02;2.78;;;1.55;;
40022;SDS011;25713;-35.352;149.036;2023-01-01T00:21:32;1.98;;;1.27;;
40022;SDS011;25713;-35.352;149.036;2023-01-01T00:24:02;2.45;;;1.17;;
40022;SDS011;25713;-35.352;149.036;2023-01-01T00:26:32;2.88;;;1.52;;
40022;SDS011;25713;-35.352;149.036;2023-01-01T00:29:02;1.85;;;1.30;;
40022;SDS011;25713;-35.352;149.036;2023-01-01T00:31:31;1.30;;;1.20;;
40022;SDS011;25713;-35.352;149.036;2023-01-01T00:34:04;1.85;;;1.30;;
40022;SDS011;25713;-35.352;149.036;2023-01-01T00:36:36;1.20;;;1.10;;
40022;SDS011;25713;-35.352;149.036;2023-01-01T00:39:05;2.38;;;1.10;;
40022;SDS011;25713;-35.352;149.036;2023-01-01T00:41:35;1.63;;;1.23;;
40022;SDS011;25713;-35.352;149.036;2023-01-01T00:44:04;1.70;;;1.15;;
40022;SDS011;25713;-35.352;149.036;2023-01-01T00:46:34;1.80;;;1.15;;
40022;SDS011;25713;-35.352;149.036;2023-01-01T00:49:06;3.55;;;1.45;;
40022;SDS011;25713;-35.352;149.036;2023-01-01T00:51:36;2.00;;;1.45;;
40022;SDS011;25713;-35.352;149.036;2023-01-01T00:54:05;1.80;;;1.20;;
40022;SDS011;25713;-35.352;149.036;2023-01-01T00:56:35;1.30;;;1.20;;
40022;SDS011;25713;-35.352;149.036;2023-01-01T00:59:05;1.45;;;1.20;;
40022;SDS011;25713;-35.352;149.036;2023-01-01T01:01:34;2.47;;;1.23;;
40022;SDS011;25713;-35.352;149.036;2023-01-01T01:04:08;3.67;;;1.20;;
40022;SDS011;25713;-35.352;149.036;2023-01-01T01:06:37;3.38;;;1.25;;
40022;SDS011;25713;-35.352;149.036;2023-01-01T01:09:07;2.35;;;1.40;;
40022;SDS011;25713;-35.352;149.036;2023-01-01T01:11:36;2.17;;;1.20;;
40022;SDS011;25713;-35.352;149.036;2023-01-01T01:14:06;1.90;;;1.25;;
40022;SDS011;25713;-35.352;149.036;2023-01-01T01:16:36;1.25;;;1.10;;
40022;SDS011;25713;-35.352;149.036;2023-01-01T01:19:09;1.63;;;1.30;;
40022;SDS011;25713;-35.352;149.036;2023-01-01T01:21:38;2.95;;;1.42;;
40022;SDS011;25713;-35.352;149.036;2023-01-01T01:24:08;1.63;;;1.40;;
40022;SDS011;25713;-35.352;149.036;2023-01-01T01:26:38;4.45;;;1.63;;
40022;SDS011;25713;-35.352;149.036;2023-01-01T01:29:08;2.95;;;1.58;;
40022;SDS011;25713;-35.352;149.036;2023-01-01T01:31:38;1.95;;;1.30;;
40022;SDS011;25713;-35.352;149.036;2023-01-01T01:34:09;1.67;;;1.50;;
40022;SDS011;25713;-35.352;149.036;2023-01-01T01:36:39;1.93;;;1.50;;
40022;SDS011;25713;-35.352;149.036;2023-01-01T01:39:10;1.92;;;1.38;;
40022;SDS011;25713;-35.352;149.036;2023-01-01T01:41:39;2.38;;;1.35;;
40022;SDS011;25713;-35.352;149.036;2023-01-01T01:47:10;2.15;;;1.60;;
40022;SDS011;25713;-35.352;149.036;2023-01-01T01:49:47;2.10;;;1.58;;
40022;SDS011;25713;-35.352;149.036;2023-01-01T01:52:20;2.58;;;1.48;;
40022;SDS011;25713;-35.352;149.036;2023-01-01T01:54:49;1.85;;;1.50;;
40022;SDS011;25713;-35.352;149.036;2023-01-01T01:57:19;5.20;;;1.50;;
40022;SDS011;25713;-35.352;149.036;2023-01-01T01:59:51;3.40;;;1.75;;
40022;SDS011;25713;-35.352;149.036;2023-01-01T02:02:26;2.45;;;1.30;;
40022;SDS011;25713;-35.352;149.036;2023-01-01T02:05:02;2.17;;;1.60;;
40022;SDS011;25713;-35.352;149.036;2023-01-01T02:07:32;2.05;;;1.52;;
40022;SDS011;25713;-35.352;149.036;2023-01-01T02:10:03;1.77;;;1.60;;
40022;SDS011;25713;-35.352;149.036;2023-01-01T02:12:32;2.08;;;1.40;;
40022;SDS011;25713;-35.352;149.036;2023-01-01T02:15:02;2.17;;;1.70;;
40022;SDS011;25713;-35.352;149.036;2023-01-01T02:17:32;2.58;;;1.60;;
40022;SDS011;25713;-35.352;149.036;2023-01-01T02:26:16;1.95;;;1.25;;
40022;SDS011;25713;-35.352;149.036;2023-01-01T02:28:59;2.30;;;2.10;;
40022;SDS011;25713;-35.352;149.036;2023-01-01T02:31:34;4.15;;;1.90;;
40022;SDS011;25713;-35.352;149.036;2023-01-01T02:34:10;2.58;;;1.70;;
40022;SDS011;25713;-35.352;149.036;2023-01-01T02:36:43;1.85;;;1.60;;
40022;SDS011;25713;-35.352;149.036;2023-01-01T02:39:17;2.38;;;1.75;;
40022;SDS011;25713;-35.352;149.036;2023-01-01T02:41:50;3.17;;;1.60;;
40022;SDS011;25713;-35.352;149.036;2023-01-01T02:44:26;3.45;;;1.73;;
40022;SDS011;25713;-35.352;149.036;2023-01-01T02:47:05;2.92;;;1.75;;
40022;SDS011;25713;-35.352;149.036;2023-01-01T02:49:37;2.47;;;1.67;;
40022;SDS011;25713;-35.352;149.036;2023-01-01T02:52:15;2.15;;;1.60;;
40022;SDS011;25713;-35.352;149.036;2023-01-01T02:54:56;2.80;;;1.80;;
40022;SDS011;25713;-35.352;149.036;2023-01-01T02:57:33;2.38;;;1.75;;
40022;SDS011;25713;-35.352;149.036;2023-01-01T03:00:10;2.05;;;1.60;;
40022;SDS011;25713;-35.352;149.036;2023-01-01T03:02:44;2.35;;;1.60;;
40022;SDS011;25713;-35.352;149.036;2023-01-01T03:05:24;1.88;;;1.60;;
40022;SDS011;25713;-35.352;149.036;2023-01-01T03:08:02;1.67;;;1.50;;
40022;SDS011;25713;-35.352;149.036;2023-01-01T03:10:37;1.90;;;1.70;;
40022;SDS011;25713;-35.352;149.036;2023-01-01T03:13:11;3.47;;;1.80;;
40022;SDS011;25713;-35.352;149.036;2023-01-01T03:15:49;3.25;;;1.83;;
40022;SDS011;25713;-35.352;149.036;2023-01-01T03:18:25;2.00;;;1.52;;
40022;SDS011;25713;-35.352;149.036;2023-01-01T03:21:00;2.05;;;1.52;;
40022;SDS011;25713;-35.352;149.036;2023-01-01T03:23:33;3.63;;;1.40;;
40022;SDS011;25713;-35.352;149.036;2023-01-01T03:26:11;1.50;;;1.40;;
40022;SDS011;25713;-35.352;149.036;2023-01-01T03:28:43;1.40;;;1.30;;
40022;SDS011;25713;-35.352;149.036;2023-01-01T03:31:20;3.35;;;1.70;;
40022;SDS011;25713;-35.352;149.036;2023-01-01T03:33:52;2.58;;;1.77;;
40022;SDS011;25713;-35.352;149.036;2023-01-01T03:36:27;4.13;;;1.90;;
40022;SDS011;25713;-35.352;149.036;2023-01-01T03:39:02;2.33;;;1.58;;
40022;SDS011;25713;-35.352;149.036;2023-01-01T03:41:35;2.17;;;1.50;;
40022;SDS011;25713;-35.352;149.036;2023-01-01T03:44:09;3.63;;;1.80;;
40022;SDS011;25713;-35.352;149.036;2023-01-01T03:46:46;2.08;;;1.88;;
40022;SDS011;25713;-35.352;149.036;2023-01-01T03:49:16;2.65;;;1.75;;
40022;SDS011;25713;-35.352;149.036;2023-01-01T03:52:00;4.43;;;2.05;;
40022;SDS011;25713;-35.352;149.036;2023-01-01T03:54:41;2.88;;;1.63;;
40022;SDS011;25713;-35.352;149.036;2023-01-01T03:57:19;4.55;;;1.90;;
40022;SDS011;25713;-35.352;149.036;2023-01-01T03:59:55;4.13;;;1.80;;
40022;SDS011;25713;-35.352;149.036;2023-01-01T04:02:41;2.20;;;1.77;;
40022;SDS011;25713;-35.352;149.036;2023-01-01T04:05:16;4.53;;;1.98;;
40022;SDS011;25713;-35.352;149.036;2023-01-01T04:07:46;4.07;;;1.92;;
40022;SDS011;25713;-35.352;149.036;2023-01-01T04:10:17;2.45;;;1.80;;
40022;SDS011;25713;-35.352;149.036;2023-01-01T04:12:47;3.47;;;1.80;;
40022;SDS011;25713;-35.352;149.036;2023-01-01T04:15:19;2.47;;;1.73;;
40022;SDS011;25713;-35.352;149.036;2023-01-01T04:17:52;3.42;;;1.65;;
40022;SDS011;25713;-35.352;149.036;2023-01-01T04:20:22;3.63;;;2.03;;
40022;SDS011;25713;-35.352;149.036;2023-01-01T04:22:52;4.00;;;1.98;;
40022;SDS011;25713;-35.352;149.036;2023-01-01T04:25:24;2.55;;;1.90;;
40022;SDS011;25713;-35.352;149.036;2023-01-01T04:27:57;2.00;;;1.80;;
40022;SDS011;25713;-35.352;149.036;2023-01-01T04:30:26;1.88;;;1.70;;
40022;SDS011;25713;-35.352;149.036;2023-01-01T04:32:58;4.70;;;1.90;;
40022;SDS011;25713;-35.352;149.036;2023-01-01T04:35:27;2.45;;;1.85;;
40022;SDS011;25713;-35.352;149.036;2023-01-01T04:37:57;2.88;;;2.08;;
40022;SDS011;25713;-35.352;149.036;2023-01-01T04:40:26;2.10;;;1.90;;
40022;SDS011;25713;-35.352;149.036;2023-01-01T04:42:56;4.55;;;2.05;;
40022;SDS011;25713;-35.352;149.036;2023-01-01T04:45:25;4.22;;;1.90;;
40022;SDS011;25713;-35.352;149.036;2023-01-01T04:47:54;2.15;;;1.55;;
40022;SDS011;25713;-35.352;149.036;2023-01-01T04:50:29;3.45;;;1.88;;
40022;SDS011;25713;-35.352;149.036;2023-01-01T04:52:59;3.53;;;2.17;;
40022;SDS011;25713;-35.352;149.036;2023-01-01T04:55:28;3.92;;;2.00;;
40022;SDS011;25713;-35.352;149.036;2023-01-01T04:57:57;3.55;;;2.28;;
40022;SDS011;25713;-35.352;149.036;2023-01-01T05:00:27;4.68;;;2.60;;
40022;SDS011;25713;-35.352;149.036;2023-01-01T05:02:58;2.83;;;2.30;;
40022;SDS011;25713;-35.352;149.036;2023-01-01T05:05:27;2.87;;;2.40;;
40022;SDS011;25713;-35.352;149.036;2023-01-01T05:07:57;5.85;;;2.40;;
40022;SDS011;25713;-35.352;149.036;2023-01-01T05:10:26;2.10;;;1.90;;
40022;SDS011;25713;-35.352;149.036;2023-01-01T05:12:56;4.18;;;2.40;;
40022;SDS011;25713;-35.352;149.036;2023-01-01T05:15:26;2.50;;;2.15;;
40022;SDS011;25713;-35.352;149.036;2023-01-01T05:17:55;2.55;;;1.88;;
40022;SDS011;25713;-35.352;149.036;2023-01-01T05:20:27;2.63;;;2.13;;
40022;SDS011;25713;-35.352;149.036;2023-01-01T05:22:56;3.30;;;2.15;;
40022;SDS011;25713;-35.352;149.036;2023-01-01T05:25:26;2.08;;;1.88;;
40022;SDS011;25713;-35.352;149.036;2023-01-01T05:27:55;2.30;;;1.85;;
40022;SDS011;25713;-35.352;149.036;2023-01-01T05:30:25;3.22;;;2.20;;
40022;SDS011;25713;-35.352;149.036;2023-01-01T05:32:54;2.22;;;2.03;;
40022;SDS011;25713;-35.352;149.036;2023-01-01T05:35:25;2.28;;;1.98;;
40022;SDS011;25713;-35.352;149.036;2023-01-01T05:37:55;1.97;;;1.80;;
40022;SDS011;25713;-35.352;149.036;2023-01-01T05:40:24;2.70;;;2.00;;
40022;SDS011;25713;-35.352;149.036;2023-01-01T05:42:53;2.30;;;2.00;;
40022;SDS011;25713;-35.352;149.036;2023-01-01T05:45:23;2.38;;;1.90;;
40022;SDS011;25713;-35.352;149.036;2023-01-01T05:47:52;3.08;;;2.33;;
40022;SDS011;25713;-35.352;149.036;2023-01-01T05:50:21;3.95;;;2.30;;
40022;SDS011;25713;-35.352;149.036;2023-01-01T05:52:53;3.13;;;2.13;;
40022;SDS011;25713;-35.352;149.036;2023-01-01T05:55:23;2.75;;;2.28;;
40022;SDS011;25713;-35.352;149.036;2023-01-01T05:57:52;3.85;;;2.28;;
40022;SDS011;25713;-35.352;149.036;2023-01-01T06:00:21;3.63;;;2.10;;
40022;SDS011;25713;-35.352;149.036;2023-01-01T06:02:51;3.67;;;1.95;;
40022;SDS011;25713;-35.352;149.036;2023-01-01T06:05:21;5.45;;;2.22;;
40022;SDS011;25713;-35.352;149.036;2023-01-01T06:07:50;2.72;;;2.20;;
40022;SDS011;25713;-35.352;149.036;2023-01-01T06:10:21;2.40;;;2.20;;
40022;SDS011;25713;-35.352;149.036;2023-01-01T06:12:51;3.30;;;2.10;;
40022;SDS011;25713;-35.352;149.036;2023-01-01T06:15:23;2.75;;;1.90;;
40022;SDS011;25713;-35.352;149.036;2023-01-01T06:17:52;2.90;;;2.08;;
40022;SDS011;25713;-35.352;149.036;2023-01-01T06:20:22;2.42;;;1.98;;
40022;SDS011;25713;-35.352;149.036;2023-01-01T06:22:51;3.22;;;2.00;;
40022;SDS011;25713;-35.352;149.036;2023-01-01T06:25:22;2.20;;;2.00;;
40022;SDS011;25713;-35.352;149.036;2023-01-01T06:27:52;3.72;;;2.30;;
40022;SDS011;25713;-35.352;149.036;2023-01-01T06:30:21;2.80;;;2.10;;
40022;SDS011;25713;-35.352;149.036;2023-01-01T06:32:52;2.88;;;2.00;;
40022;SDS011;25713;-35.352;149.036;2023-01-01T06:35:22;2.50;;;2.03;;
40022;SDS011;25713;-35.352;149.036;2023-01-01T06:37:51;4.15;;;2.17;;
40022;SDS011;25713;-35.352;149.036;2023-01-01T06:40:24;3.08;;;1.85;;
40022;SDS011;25713;-35.352;149.036;2023-01-01T06:42:56;2.20;;;2.00;;
40022;SDS011;25713;-35.352;149.036;2023-01-01T06:45:26;2.85;;;1.60;;
40022;SDS011;25713;-35.352;149.036;2023-01-01T06:47:56;3.60;;;2.10;;
40022;SDS011;25713;-35.352;149.036;2023-01-01T06:50:26;2.38;;;2.10;;
40022;SDS011;25713;-35.352;149.036;2023-01-01T06:52:57;2.58;;;2.05;;
40022;SDS011;25713;-35.352;149.036;2023-01-01T06:55:26;3.10;;;2.23;;
40022;SDS011;25713;-35.352;149.036;2023-01-01T06:57:56;3.38;;;1.95;;
40022;SDS011;25713;-35.352;149.036;2023-01-01T07:00:25;3.10;;;2.20;;
40022;SDS011;25713;-35.352;149.036;2023-01-01T07:02:54;2.33;;;1.90;;
40022;SDS011;25713;-35.352;149.036;2023-01-01T07:05:24;4.13;;;2.17;;
40022;SDS011;25713;-35.352;149.036;2023-01-01T07:07:54;4.43;;;2.22;;
40022;SDS011;25713;-35.352;149.036;2023-01-01T07:10:25;2.30;;;2.10;;
40022;SDS011;25713;-35.352;149.036;2023-01-01T07:12:55;2.40;;;1.90;;
40022;SDS011;25713;-35.352;149.036;2023-01-01T07:15:24;2.72;;;1.92;;
40022;SDS011;25713;-35.352;149.036;2023-01-01T07:17:53;2.88;;;1.98;;
40022;SDS011;25713;-35.352;149.036;2023-01-01T07:20:23;2.28;;;1.80;;
40022;SDS011;25713;-35.352;149.036;2023-01-01T07:22:52;2.97;;;1.80;;
40022;SDS011;25713;-35.352;149.036;2023-01-01T07:25:24;4.22;;;2.22;;
40022;SDS011;25713;-35.352;149.036;2023-01-01T07:27:53;2.83;;;2.13;;
40022;SDS011;25713;-35.352;149.036;2023-01-01T07:30:23;3.40;;;2.03;;
40022;SDS011;25713;-35.352;149.036;2023-01-01T07:32:53;3.42;;;2.10;;
40022;SDS011;25713;-35.352;149.036;2023-01-01T07:35:23;3.50;;;2.35;;
40022;SDS011;25713;-35.352;149.036;2023-01-01T07:37:52;2.30;;;1.95;;
40022;SDS011;25713;-35.352;149.036;2023-01-01T07:40:23;3.55;;;1.95;;
40022;SDS011;25713;-35.352;149.036;2023-01-01T07:42:53;3.72;;;2.17;;
40022;SDS011;25713;-35.352;149.036;2023-01-01T07:45:23;3.00;;;2.10;;
40022;SDS011;25713;-35.352;149.036;2023-01-01T07:47:53;3.40;;;1.98;;
40022;SDS011;25713;-35.352;149.036;2023-01-01T07:50:23;3.35;;;2.00;;
40022;SDS011;25713;-35.352;149.036;2023-01-01T07:52:54;3.08;;;1.90;;
40022;SDS011;25713;-35.352;149.036;2023-01-01T07:55:25;3.63;;;2.08;;
40022;SDS011;25713;-35.352;149.036;2023-01-01T07:57:55;3.20;;;2.00;;
40022;SDS011;25713;-35.352;149.036;2023-01-01T08:00:24;2.60;;;2.00;;
40022;SDS011;25713;-35.352;149.036;2023-01-01T08:02:54;4.97;;;2.00;;
40022;SDS011;25713;-35.352;149.036;2023-01-01T08:05:24;2.60;;;2.25;;
40022;SDS011;25713;-35.352;149.036;2023-01-01T08:07:53;2.38;;;1.80;;
40022;SDS011;25713;-35.352;149.036;2023-01-01T08:10:23;2.33;;;1.90;;
40022;SDS011;25713;-35.352;149.036;2023-01-01T08:12:58;4.25;;;2.10;;
40022;SDS011;25713;-35.352;149.036;2023-01-01T08:15:28;3.63;;;1.88;;
40022;SDS011;25713;-35.352;149.036;2023-01-01T08:17:58;4.00;;;1.90;;
40022;SDS011;25713;-35.352;149.036;2023-01-01T08:20:28;3.30;;;1.98;;
40022;SDS011;25713;-35.352;149.036;2023-01-01T08:23:02;4.82;;;2.00;;
40022;SDS011;25713;-35.352;149.036;2023-01-01T08:25:37;4.72;;;2.10;;
40022;SDS011;25713;-35.352;149.036;2023-01-01T08:28:07;4.73;;;2.17;;
40022;SDS011;25713;-35.352;149.036;2023-01-01T08:30:36;3.00;;;1.70;;
40022;SDS011;25713;-35.352;149.036;2023-01-01T08:33:06;3.47;;;2.20;;
40022;SDS011;25713;-35.352;149.036;2023-01-01T08:35:35;3.63;;;1.90;;
40022;SDS011;25713;-35.352;149.036;2023-01-01T08:38:08;1.90;;;1.70;;
40022;SDS011;25713;-35.352;149.036;2023-01-01T08:40:40;4.72;;;2.15;;
40022;SDS011;25713;-35.352;149.036;2023-01-01T08:43:09;3.13;;;1.80;;
40022;SDS011;25713;-35.352;149.036;2023-01-01T08:45:39;3.65;;;1.92;;
40022;SDS011;25713;-35.352;149.036;2023-01-01T08:48:08;3.40;;;1.85;;
40022;SDS011;25713;-35.352;149.036;2023-01-01T08:50:37;4.00;;;1.80;;
40022;SDS011;25713;-35.352;149.036;2023-01-01T08:53:07;2.35;;;1.80;;
40022;SDS011;25713;-35.352;149.036;2023-01-01T08:55:36;4.72;;;2.08;;
40022;SDS011;25713;-35.352;149.036;2023-01-01T08:58:07;3.83;;;1.90;;
40022;SDS011;25713;-35.352;149.036;2023-01-01T09:00:37;2.40;;;1.88;;
40022;SDS011;25713;-35.352;149.036;2023-01-01T09:03:06;5.28;;;2.28;;
40022;SDS011;25713;-35.352;149.036;2023-01-01T09:05:35;4.60;;;2.10;;
40022;SDS011;25713;-35.352;149.036;2023-01-01T09:08:06;4.43;;;1.70;;
40022;SDS011;25713;-35.352;149.036;2023-01-01T09:10:36;4.85;;;2.00;;
40022;SDS011;25713;-35.352;149.036;2023-01-01T09:13:07;4.05;;;2.17;;
40022;SDS011;25713;-35.352;149.036;2023-01-01T09:15:37;5.85;;;2.13;;
40022;SDS011;25713;-35.352;149.036;2023-01-01T09:18:07;2.60;;;2.00;;
40022;SDS011;25713;-35.352;149.036;2023-01-01T09:20:37;4.20;;;2.28;;
40022;SDS011;25713;-35.352;149.036;2023-01-01T09:23:07;4.68;;;2.08;;
40022;SDS011;25713;-35.352;149.036;2023-01-01T09:25:37;3.70;;;1.90;;
40022;SDS011;25713;-35.352;149.036;2023-01-01T09:28:10;8.02;;;2.42;;
40022;SDS011;25713;-35.352;149.036;2023-01-01T09:30:40;5.07;;;2.08;;
40022;SDS011;25713;-35.352;149.036;2023-01-01T09:33:09;4.90;;;2.13;;
40022;SDS011;25713;-35.352;149.036;2023-01-01T09:35:39;6.65;;;2.22;;
40022;SDS011;25713;-35.352;149.036;2023-01-01T09:38:08;5.38;;;2.08;;
40022;SDS011;25713;-35.352;149.036;2023-01-01T09:40:42;5.72;;;2.03;;
40022;SDS011;25713;-35.352;149.036;2023-01-01T09:43:27;4.57;;;1.83;;
40022;SDS011;25713;-35.352;149.036;2023-01-01T09:46:02;6.47;;;2.13;;
40022;SDS011;25713;-35.352;149.036;2023-01-01T09:48:33;5.43;;;2.10;;
40022;SDS011;25713;-35.352;149.036;2023-01-01T09:51:10;8.93;;;2.30;;
40022;SDS011;25713;-35.352;149.036;2023-01-01T09:53:43;4.78;;;2.17;;
40022;SDS011;25713;-35.352;149.036;2023-01-01T09:56:19;4.63;;;2.10;;
40022;SDS011;25713;-35.352;149.036;2023-01-01T09:58:52;5.40;;;2.20;;
40022;SDS011;25713;-35.352;149.036;2023-01-01T10:01:32;4.85;;;2.00;;
40022;SDS011;25713;-35.352;149.036;2023-01-01T10:04:15;6.15;;;2.00;;
40022;SDS011;25713;-35.352;149.036;2023-01-01T10:06:53;5.18;;;1.90;;
40022;SDS011;25713;-35.352;149.036;2023-01-01T10:09:32;4.70;;;2.00;;
40022;SDS011;25713;-35.352;149.036;2023-01-01T10:12:14;3.78;;;2.35;;
40022;SDS011;25713;-35.352;149.036;2023-01-01T10:14:47;5.93;;;1.90;;
40022;SDS011;25713;-35.352;149.036;2023-01-01T10:17:22;5.18;;;2.00;;
40022;SDS011;25713;-35.352;149.036;2023-01-01T10:19:59;5.72;;;2.10;;
40022;SDS011;25713;-35.352;149.036;2023-01-01T10:22:34;6.30;;;2.17;;
40022;SDS011;25713;-35.352;149.036;2023-01-01T10:25:12;5.35;;;2.40;;
40022;SDS011;25713;-35.352;149.036;2023-01-01T10:27:46;7.15;;;2.08;;
40022;SDS011;25713;-35.352;149.036;2023-01-01T10:30:20;5.57;;;2.03;;
40022;SDS011;25713;-35.352;149.036;2023-01-01T10:32:50;4.63;;;2.47;;
40022;SDS011;25713;-35.352;149.036;2023-01-01T10:35:21;5.85;;;2.42;;
40022;SDS011;25713;-35.352;149.036;2023-01-01T10:37:53;4.15;;;2.00;;
40022;SDS011;25713;-35.352;149.036;2023-01-01T10:40:22;5.35;;;2.17;;
40022;SDS011;25713;-35.352;149.036;2023-01-01T10:42:58;3.63;;;2.15;;
40022;SDS011;25713;-35.352;149.036;2023-01-01T10:45:28;3.17;;;1.90;;
40022;SDS011;25713;-35.352;149.036;2023-01-01T10:48:09;4.55;;;2.03;;
40022;SDS011;25713;-35.352;149.036;2023-01-01T10:50:41;6.03;;;1.95;;
40022;SDS011;25713;-35.352;149.036;2023-01-01T10:53:23;3.20;;;2.33;;
40022;SDS011;25713;-35.352;149.036;2023-01-01T10:56:05;5.07;;;2.15;;
40022;SDS011;25713;-35.352;149.036;2023-01-01T10:58:39;4.00;;;2.15;;
40022;SDS011;25713;-35.352;149.036;2023-01-01T11:01:10;2.47;;;1.90;;
40022;SDS011;25713;-35.352;149.036;2023-01-01T11:03:55;9.30;;;2.03;;
40022;SDS011;25713;-35.352;149.036;2023-01-01T11:06:26;4.57;;;2.05;;
40022;SDS011;25713;-35.352;149.036;2023-01-01T11:08:59;5.93;;;2.22;;
40022;SDS011;25713;-35.352;149.036;2023-01-01T11:11:30;5.35;;;2.40;;
40022;SDS011;25713;-35.352;149.036;2023-01-01T11:14:13;5.97;;;2.20;;
40022;SDS011;25713;-35.352;149.036;2023-01-01T11:16:47;5.25;;;2.58;;
40022;SDS011;25713;-35.352;149.036;2023-01-01T11:19:19;5.75;;;2.40;;
40022;SDS011;25713;-35.352;149.036;2023-01-01T11:21:54;4.82;;;2.35;;
40022;SDS011;25713;-35.352;149.036;2023-01-01T11:24:25;7.13;;;2.20;;
40022;SDS011;25713;-35.352;149.036;2023-01-01T11:29:49;4.80;;;2.00;;
40022;SDS011;25713;-35.352;149.036;2023-01-01T11:32:39;2.67;;;1.92;;
40022;SDS011;25713;-35.352;149.036;2023-01-01T11:35:14;3.83;;;2.00;;
40022;SDS011;25713;-35.352;149.036;2023-01-01T11:37:47;6.65;;;2.58;;
40022;SDS011;25713;-35.352;149.036;2023-01-01T11:40:17;5.05;;;2.20;;
40022;SDS011;25713;-35.352;149.036;2023-01-01T11:42:49;4.63;;;2.42;;
40022;SDS011;25713;-35.352;149.036;2023-01-01T11:45:22;5.07;;;2.03;;
40022;SDS011;25713;-35.352;149.036;2023-01-01T11:47:55;3.22;;;2.00;;
40022;SDS011;25713;-35.352;149.036;2023-01-01T11:50:27;4.50;;;2.60;;
40022;SDS011;25713;-35.352;149.036;2023-01-01T11:53:15;8.23;;;3.20;;
40022;SDS011;25713;-35.352;149.036;2023-01-01T11:55:47;5.43;;;2.63;;
40022;SDS011;25713;-35.352;149.036;2023-01-01T11:58:20;4.38;;;2.20;;
40022;SDS011;25713;-35.352;149.036;2023-01-01T12:00:59;3.58;;;2.33;;
40022;SDS011;25713;-35.352;149.036;2023-01-01T12:03:32;3.17;;;2.28;;
40022;SDS011;25713;-35.352;149.036;2023-01-01T12:06:05;9.23;;;2.90;;
40022;SDS011;25713;-35.352;149.036;2023-01-01T12:08:42;3.20;;;2.25;;
40022;SDS011;25713;-35.352;149.036;2023-01-01T12:11:16;6.38;;;2.60;;
40022;SDS011;25713;-35.352;149.036;2023-01-01T12:13:53;3.25;;;1.95;;
40022;SDS011;25713;-35.352;149.036;2023-01-01T12:16:30;4.30;;;2.40;;
40022;SDS011;25713;-35.352;149.036;2023-01-01T12:21:39;7.90;;;2.50;;
40022;SDS011;25713;-35.352;149.036;2023-01-01T12:24:10;4.60;;;2.55;;
40022;SDS011;25713;-35.352;149.036;2023-01-01T12:26:46;4.68;;;2.50;;
40022;SDS011;25713;-35.352;149.036;2023-01-01T12:29:39;4.45;;;2.20;;
40022;SDS011;25713;-35.352;149.036;2023-01-01T12:32:34;4.57;;;2.55;;
40022;SDS011;25713;-35.352;149.036;2023-01-01T12:35:19;6.43;;;2.50;;
40022;SDS011;25713;-35.352;149.036;2023-01-01T12:37:59;4.82;;;2.47;;
40022;SDS011;25713;-35.352;149.036;2023-01-01T12:40:37;7.68;;;2.67;;
40022;SDS011;25713;-35.352;149.036;2023-01-01T12:43:10;6.20;;;2.50;;
40022;SDS011;25713;-35.352;149.036;2023-01-01T12:45:48;5.55;;;2.80;;
40022;SDS011;25713;-35.352;149.036;2023-01-01T12:48:43;6.15;;;2.38;;
40022;SDS011;25713;-35.352;149.036;2023-01-01T12:51:26;3.92;;;2.33;;
40022;SDS011;25713;-35.352;149.036;2023-01-01T12:54:05;6.57;;;2.80;;
40022;SDS011;25713;-35.352;149.036;2023-01-01T12:56:51;5.75;;;2.60;;
40022;SDS011;25713;-35.352;149.036;2023-01-01T12:59:27;6.40;;;2.50;;
40022;SDS011;25713;-35.352;149.036;2023-01-01T13:01:59;5.72;;;2.40;;
40022;SDS011;25713;-35.352;149.036;2023-01-01T13:04:38;5.35;;;2.40;;
40022;SDS011;25713;-35.352;149.036;2023-01-01T13:07:10;5.25;;;2.20;;
40022;SDS011;25713;-35.352;149.036;2023-01-01T13:09:42;3.65;;;2.25;;
40022;SDS011;25713;-35.352;149.036;2023-01-01T13:12:13;6.22;;;2.40;;
40022;SDS011;25713;-35.352;149.036;2023-01-01T13:14:46;4.35;;;2.38;;
40022;SDS011;25713;-35.352;149.036;2023-01-01T13:17:17;5.82;;;2.60;;
40022;SDS011;25713;-35.352;149.036;2023-01-01T13:19:51;6.28;;;2.28;;
40022;SDS011;25713;-35.352;149.036;2023-01-01T13:22:37;5.80;;;2.90;;
40022;SDS011;25713;-35.352;149.036;2023-01-01T13:25:17;4.13;;;2.53;;
40022;SDS011;25713;-35.352;149.036;2023-01-01T13:28:02;4.18;;;2.42;;
40022;SDS011;25713;-35.352;149.036;2023-01-01T13:30:48;3.80;;;2.20;;
40022;SDS011;25713;-35.352;149.036;2023-01-01T13:33:19;5.20;;;2.45;;
40022;SDS011;25713;-35.352;149.036;2023-01-01T13:38:46;4.83;;;2.63;;
40022;SDS011;25713;-35.352;149.036;2023-01-01T13:41:29;7.30;;;2.40;;
40022;SDS011;25713;-35.352;149.036;2023-01-01T13:46:50;5.45;;;2.28;;
40022;SDS011;25713;-35.352;149.036;2023-01-01T13:49:34;7.03;;;2.40;;
40022;SDS011;25713;-35.352;149.036;2023-01-01T13:52:24;9.95;;;2.95;;
40022;SDS011;25713;-35.352;149.036;2023-01-01T13:55:18;7.75;;;2.25;;
40022;SDS011;25713;-35.352;149.036;2023-01-01T14:04:26;6.40;;;2.70;;
40022;SDS011;25713;-35.352;149.036;2023-01-01T14:06:59;5.25;;;2.72;;
40022;SDS011;25713;-35.352;149.036;2023-01-01T14:09:33;5.35;;;2.55;;
40022;SDS011;25713;-35.352;149.036;2023-01-01T14:12:09;8.23;;;2.65;;
40022;SDS011;25713;-35.352;149.036;2023-01-01T14:14:44;5.20;;;2.20;;
40022;SDS011;25713;-35.352;149.036;2023-01-01T14:17:14;8.07;;;2.50;;
40022;SDS011;25713;-35.352;149.036;2023-01-01T14:19:44;3.85;;;2.35;;
40022;SDS011;25713;-35.352;149.036;2023-01-01T14:22:13;6.22;;;2.95;;
40022;SDS011;25713;-35.352;149.036;2023-01-01T14:24:45;7.90;;;2.43;;
40022;SDS011;25713;-35.352;149.036;2023-01-01T14:27:20;8.23;;;2.63;;
40022;SDS011;25713;-35.352;149.036;2023-01-01T14:29:49;8.05;;;2.63;;
40022;SDS011;25713;-35.352;149.036;2023-01-01T14:32:20;6.05;;;2.35;;
40022;SDS011;25713;-35.352;149.036;2023-01-01T14:35:00;5.75;;;2.35;;
40022;SDS011;25713;-35.352;149.036;2023-01-01T14:37:30;5.40;;;2.75;;
40022;SDS011;25713;-35.352;149.036;2023-01-01T14:40:06;4.32;;;2.25;;
40022;SDS011;25713;-35.352;149.036;2023-01-01T14:42:44;3.30;;;2.08;;
40022;SDS011;25713;-35.352;149.036;2023-01-01T14:45:16;3.50;;;2.30;;
40022;SDS011;25713;-35.352;149.036;2023-01-01T14:47:47;5.60;;;2.10;;
40022;SDS011;25713;-35.352;149.036;2023-01-01T14:50:20;5.32;;;2.40;;
40022;SDS011;25713;-35.352;149.036;2023-01-01T15:53:08;4.93;;;2.53;;
40022;SDS011;25713;-35.352;149.036;2023-01-01T15:55:41;6.50;;;2.65;;
40022;SDS011;25713;-35.352;149.036;2023-01-01T15:58:18;10.75;;;3.03;;
40022;SDS011;25713;-35.352;149.036;2023-01-01T16:00:53;6.68;;;2.25;;
40022;SDS011;25713;-35.352;149.036;2023-01-01T16:03:26;8.75;;;2.95;;
40022;SDS011;25713;-35.352;149.036;2023-01-01T16:05:57;5.13;;;2.40;;
40022;SDS011;25713;-35.352;149.036;2023-01-01T16:08:28;7.18;;;2.90;;